Time;durP1;ratioP1;P1;durP2;ratioP2;P2;SDS_P1;SDS_P2;PMS_P1;PMS_P2;Temp;Humidity;BMP_temperature;BMP_pressure;BME280_temperature;BME280_humidity;BME280_pressure;Samples;Min_cycle;Max_cycle;Signal;HPM_P1;HPM_P2
2022/02/15 00:02:13;;;;;;;3.00;1.50;;;;;;;;;;5021413;28;20188;-65
2022/02/15 00:04:39;;;;;;;2.73;1.60;;;;;;;;;;5012071;28;20632;-64
2022/02/15 00:07:11;;;;;;;4.80;1.80;;;;;;;;;;5023761;28;20197;-64
2022/02/15 00:09:37;;;;;;;1.97;1.73;;;;;;;;;;5014230;28;20261;-64
2022/02/15 00:12:07;;;;;;;2.17;1.97;;;;;;;;;;5034208;28;20232;-64
2022/02/15 00:14:34;;;;;;;2.13;1.77;;;;;;;;;;5020232;28;20182;-64
2022/02/15 00:17:00;;;;;;;2.20;1.57;;;;;;;;;;5025040;28;20668;-64
2022/02/15 00:19:26;;;;;;;2.23;1.53;;;;;;;;;;5031137;28;20173;-64
2022/02/15 00:21:52;;;;;;;2.77;2.03;;;;;;;;;;5016271;28;21355;-64
2022/02/15 00:24:21;;;;;;;5.80;1.60;;;;;;;;;;5028655;28;20235;-64
2022/02/15 00:26:48;;;;;;;3.27;1.83;;;;;;;;;;5026530;28;20437;-66
2022/02/15 00:29:15;;;;;;;2.27;1.70;;;;;;;;;;5028036;28;20629;-64
2022/02/15 00:31:47;;;;;;;3.93;1.80;;;;;;;;;;5032914;28;20280;-64
2022/02/15 00:34:13;;;;;;;5.60;1.70;;;;;;;;;;5014109;28;20698;-64
2022/02/15 00:36:40;;;;;;;3.37;1.80;;;;;;;;;;5020843;28;20538;-64
2022/02/15 00:39:09;;;;;;;3.10;1.70;;;;;;;;;;5022169;28;20185;-64
2022/02/15 00:41:35;;;;;;;3.17;2.03;;;;;;;;;;5042733;28;20576;-65
2022/02/15 00:44:02;;;;;;;3.50;1.87;;;;;;;;;;5019900;28;20205;-64
2022/02/15 00:46:28;;;;;;;3.70;2.37;;;;;;;;;;5011522;28;20552;-64
2022/02/15 00:48:54;;;;;;;3.50;2.10;;;;;;;;;;5022848;28;20185;-65
2022/02/15 00:51:21;;;;;;;2.93;1.90;;;;;;;;;;5029406;28;20394;-65
2022/02/15 00:53:47;;;;;;;4.80;2.30;;;;;;;;;;5032660;28;20166;-65
2022/02/15 00:56:13;;;;;;;3.30;1.67;;;;;;;;;;5011301;28;20201;-65
2022/02/15 00:58:39;;;;;;;3.93;2.03;;;;;;;;;;5024572;28;20183;-65
2022/02/15 01:01:05;;;;;;;4.63;1.90;;;;;;;;;;5034585;28;20178;-65
2022/02/15 01:03:31;;;;;;;3.17;2.20;;;;;;;;;;5037367;28;20185;-65
2022/02/15 01:05:59;;;;;;;3.20;1.90;;;;;;;;;;5028263;28;20277;-65
2022/02/15 01:08:25;;;;;;;2.93;2.03;;;;;;;;;;5028614;28;20178;-65
2022/02/15 01:10:55;;;;;;;3.43;2.30;;;;;;;;;;5030509;28;20190;-65
2022/02/15 01:13:21;;;;;;;2.70;2.30;;;;;;;;;;5022111;28;20204;-65
2022/02/15 01:15:48;;;;;;;3.27;2.00;;;;;;;;;;5017970;28;20709;-65
2022/02/15 01:18:14;;;;;;;4.37;2.10;;;;;;;;;;5020635;28;20278;-65
2022/02/15 01:20:53;;;;;;;;;;;;;;;;;;;;;
2022/02/15 01:23:20;;;;;;;4.43;2.10;;;;;;;;;;5036637;28;20173;-65
2022/02/15 01:25:46;;;;;;;4.20;2.30;;;;;;;;;;5030092;28;20236;-65
2022/02/15 01:28:12;;;;;;;3.60;1.87;;;;;;;;;;5036149;28;20184;-65
2022/02/15 01:30:46;;;;;;;1.87;1.53;;;;;;;;;;5032977;28;20196;-65
2022/02/15 01:33:12;;;;;;;4.80;2.03;;;;;;;;;;5034205;28;20284;-65
2022/02/15 01:35:45;;;;;;;4.87;2.30;;;;;;;;;;5015685;28;20178;-65
2022/02/15 01:38:11;;;;;;;2.83;1.97;;;;;;;;;;5019129;28;20221;-65
2022/02/15 01:40:38;;;;;;;4.03;2.17;;;;;;;;;;5011490;28;20657;-65
2022/02/15 01:43:08;;;;;;;2.67;2.00;;;;;;;;;;5024398;28;20446;-65
2022/02/15 01:45:38;;;;;;;2.77;2.03;;;;;;;;;;5018927;28;20181;-65
2022/02/15 01:48:09;;;;;;;5.37;2.37;;;;;;;;;;5024449;28;20718;-65
2022/02/15 01:50:38;;;;;;;5.10;2.30;;;;;;;;;;5024984;28;20182;-65
2022/02/15 01:53:10;;;;;;;3.37;2.23;;;;;;;;;;5025251;28;20260;-65
2022/02/15 01:55:36;;;;;;;4.47;2.43;;;;;;;;;;5010624;28;20178;-65
2022/02/15 01:58:03;;;;;;;4.63;2.40;;;;;;;;;;5011063;28;20217;-65
2022/02/15 02:00:30;;;;;;;5.90;2.13;;;;;;;;;;5009496;28;20588;-65
2022/02/15 02:02:56;;;;;;;2.57;2.03;;;;;;;;;;5035871;28;20186;-65
2022/02/15 02:08:11;;;;;;;2.57;2.37;;;;;;;;;;5025932;28;20313;-65
2022/02/15 02:10:38;;;;;;;3.20;2.07;;;;;;;;;;5017618;28;20213;-65
2022/02/15 02:13:04;;;;;;;2.57;2.13;;;;;;;;;;5015786;28;20213;-65
2022/02/15 02:15:34;;;;;;;3.00;2.13;;;;;;;;;;5030398;28;20169;-65
2022/02/15 02:18:01;;;;;;;5.13;2.00;;;;;;;;;;5043374;28;20192;-65
2022/02/15 02:20:31;;;;;;;4.63;2.73;;;;;;;;;;5026042;28;20193;-65
2022/02/15 02:22:57;;;;;;;5.27;2.70;;;;;;;;;;5013023;28;20578;-65
2022/02/15 02:25:26;;;;;;;4.37;2.77;;;;;;;;;;5011101;28;20362;-66
2022/02/15 02:27:53;;;;;;;4.23;2.83;;;;;;;;;;5009346;28;20669;-66
2022/02/15 02:30:20;;;;;;;4.23;2.53;;;;;;;;;;5016706;28;20182;-66
2022/02/15 02:32:52;;;;;;;4.80;2.77;;;;;;;;;;5041206;28;21034;-66
2022/02/15 02:35:22;;;;;;;6.50;2.17;;;;;;;;;;5022765;28;21038;-65
2022/02/15 02:37:52;;;;;;;3.63;2.50;;;;;;;;;;5017992;28;20220;-65
2022/02/15 02:40:19;;;;;;;5.27;2.97;;;;;;;;;;5018755;28;20864;-66
2022/02/15 02:42:45;;;;;;;7.33;2.80;;;;;;;;;;5034838;28;20186;-65
2022/02/15 02:45:13;;;;;;;6.60;2.80;;;;;;;;;;5025693;28;20194;-66
2022/02/15 02:47:42;;;;;;;5.17;2.60;;;;;;;;;;5017680;28;20189;-65
2022/02/15 02:50:08;;;;;;;5.47;2.93;;;;;;;;;;5024888;28;20200;-66
2022/02/15 02:52:35;;;;;;;6.07;3.10;;;;;;;;;;5008881;28;20193;-66
2022/02/15 02:55:04;;;;;;;6.10;3.07;;;;;;;;;;5020767;28;20178;-66
2022/02/15 02:57:35;;;;;;;4.97;3.00;;;;;;;;;;5017901;28;20779;-66
2022/02/15 03:00:01;;;;;;;4.53;3.13;;;;;;;;;;5021861;28;20244;-65
2022/02/15 03:02:31;;;;;;;4.73;3.30;;;;;;;;;;5018538;28;20546;-66
2022/02/15 03:05:06;;;;;;;5.57;3.50;;;;;;;;;;5016912;28;20233;-66
2022/02/15 03:07:34;;;;;;;6.53;3.60;;;;;;;;;;5025958;28;20665;-66
2022/02/15 03:10:03;;;;;;;7.10;4.70;;;;;;;;;;5019262;28;20219;-66
2022/02/15 03:12:29;;;;;;;6.87;4.10;;;;;;;;;;5025871;28;20561;-66
2022/02/15 03:14:55;;;;;;;7.27;4.03;;;;;;;;;;5040726;28;20176;-66
2022/02/15 03:17:25;;;;;;;7.93;4.23;;;;;;;;;;5029078;28;20195;-65
2022/02/15 03:19:57;;;;;;;7.43;4.40;;;;;;;;;;5010552;28;20190;-66
2022/02/15 03:22:25;;;;;;;8.70;4.20;;;;;;;;;;5034760;28;20181;-66
2022/02/15 03:24:52;;;;;;;7.13;4.60;;;;;;;;;;5007993;28;20233;-65
2022/02/15 03:27:18;;;;;;;7.03;4.97;;;;;;;;;;4999865;28;20179;-65
2022/02/15 03:29:45;;;;;;;7.97;4.60;;;;;;;;;;4994785;28;20210;-64
2022/02/15 03:32:12;;;;;;;8.83;4.70;;;;;;;;;;4999973;28;20686;-64
2022/02/15 03:34:38;;;;;;;9.40;4.50;;;;;;;;;;4999791;28;20178;-65
2022/02/15 03:37:07;;;;;;;5.70;4.27;;;;;;;;;;5013434;28;20539;-65
2022/02/15 03:39:35;;;;;;;6.70;5.17;;;;;;;;;;5016003;28;20290;-66
2022/02/15 03:44:50;;;;;;;6.23;4.93;;;;;;;;;;5010296;28;20209;-66
2022/02/15 03:47:16;;;;;;;7.53;5.57;;;;;;;;;;5001174;28;20561;-66
2022/02/15 03:49:43;;;;;;;7.27;5.47;;;;;;;;;;5001845;28;20243;-66
2022/02/15 03:52:09;;;;;;;6.80;5.77;;;;;;;;;;5007053;28;20613;-66
2022/02/15 03:54:42;;;;;;;7.60;5.67;;;;;;;;;;5008452;28;20194;-66
2022/02/15 03:57:11;;;;;;;7.03;5.80;;;;;;;;;;5008531;28;20198;-66
2022/02/15 03:59:37;;;;;;;6.67;5.70;;;;;;;;;;5002676;28;20649;-66
2022/02/15 04:02:07;;;;;;;7.23;5.50;;;;;;;;;;4994070;28;20186;-66
2022/02/15 04:04:36;;;;;;;10.43;5.97;;;;;;;;;;5024221;28;20191;-66
2022/02/15 04:07:05;;;;;;;6.67;5.53;;;;;;;;;;4997077;28;20191;-66
2022/02/15 04:09:32;;;;;;;7.17;5.60;;;;;;;;;;4996175;28;20221;-66
2022/02/15 04:12:02;;;;;;;7.60;6.03;;;;;;;;;;5009522;28;20644;-66
2022/02/15 04:14:28;;;;;;;8.73;5.70;;;;;;;;;;5007882;28;20211;-66
2022/02/15 04:16:57;;;;;;;9.03;7.87;;;;;;;;;;5007302;28;20183;-66
2022/02/15 04:19:23;;;;;;;8.60;5.60;;;;;;;;;;4998302;28;20190;-66
2022/02/15 04:21:52;;;;;;;9.00;6.07;;;;;;;;;;5005847;28;20201;-66
2022/02/15 04:24:21;;;;;;;6.90;5.50;;;;;;;;;;5018059;28;20225;-66
2022/02/15 04:26:48;;;;;;;6.47;5.20;;;;;;;;;;5035681;28;20181;-66
2022/02/15 04:29:14;;;;;;;7.43;6.00;;;;;;;;;;5022232;28;20208;-66
2022/02/15 04:31:40;;;;;;;10.07;8.03;;;;;;;;;;5021878;28;20562;-66
2022/02/15 04:34:06;;;;;;;8.63;6.27;;;;;;;;;;5035624;28;20173;-66
2022/02/15 04:36:33;;;;;;;8.50;5.77;;;;;;;;;;5034718;28;20563;-66
2022/02/15 04:38:59;;;;;;;8.83;5.70;;;;;;;;;;5014821;28;20183;-66
2022/02/15 04:41:26;;;;;;;6.00;4.93;;;;;;;;;;5015933;28;20178;-66
2022/02/15 04:43:52;;;;;;;6.50;5.47;;;;;;;;;;5018362;28;20181;-66
2022/02/15 04:46:18;;;;;;;7.80;5.83;;;;;;;;;;5016037;28;20183;-66
2022/02/15 04:48:45;;;;;;;7.97;5.40;;;;;;;;;;5023358;28;20264;-66
2022/02/15 04:51:12;;;;;;;6.43;5.63;;;;;;;;;;5020831;28;20700;-66
2022/02/15 04:53:41;;;;;;;7.13;5.80;;;;;;;;;;5036642;28;20270;-66
2022/02/15 04:56:10;;;;;;;9.47;6.20;;;;;;;;;;5015867;28;20234;-66
2022/02/15 04:58:36;;;;;;;6.93;5.67;;;;;;;;;;5010937;28;20170;-66
2022/02/15 05:01:03;;;;;;;6.73;5.23;;;;;;;;;;5023361;28;20190;-65
2022/02/15 05:03:33;;;;;;;7.53;5.53;;;;;;;;;;5019138;28;20213;-66
2022/02/15 05:05:59;;;;;;;7.10;5.57;;;;;;;;;;5040884;28;20189;-66
2022/02/15 05:08:25;;;;;;;10.50;6.13;;;;;;;;;;5010078;28;20184;-66
2022/02/15 05:10:55;;;;;;;9.20;6.30;;;;;;;;;;5027559;28;20281;-63
2022/02/15 05:13:21;;;;;;;7.63;5.87;;;;;;;;;;5010209;28;20197;-65
2022/02/15 05:15:48;;;;;;;8.13;7.10;;;;;;;;;;5010514;28;20236;-65
2022/02/15 05:18:14;;;;;;;9.87;6.10;;;;;;;;;;5017047;28;20200;-65
2022/02/15 05:20:41;;;;;;;7.77;6.20;;;;;;;;;;5010190;28;20445;-65
2022/02/15 05:23:07;;;;;;;9.43;6.07;;;;;;;;;;5005848;28;20193;-65
2022/02/15 05:25:37;;;;;;;10.97;6.30;;;;;;;;;;5026795;28;20221;-65
2022/02/15 05:28:04;;;;;;;9.37;5.37;;;;;;;;;;5012382;28;20200;-65
2022/02/15 05:30:31;;;;;;;6.93;5.50;;;;;;;;;;5012754;28;20593;-65
2022/02/15 05:33:00;;;;;;;8.63;5.97;;;;;;;;;;4996273;28;20197;-64
2022/02/15 05:35:27;;;;;;;10.30;6.20;;;;;;;;;;5021071;28;20193;-64
2022/02/15 05:37:53;;;;;;;8.03;6.10;;;;;;;;;;5012319;28;20734;-65
2022/02/15 05:40:23;;;;;;;8.07;6.20;;;;;;;;;;5004502;28;20178;-65
2022/02/15 05:42:49;;;;;;;8.27;6.63;;;;;;;;;;5013672;28;20255;-65
2022/02/15 05:45:15;;;;;;;9.53;5.60;;;;;;;;;;5033533;28;20645;-65
2022/02/15 05:47:42;;;;;;;8.67;6.07;;;;;;;;;;5008437;28;20205;-65
2022/02/15 05:52:57;;;;;;;8.40;6.00;;;;;;;;;;5026824;28;20224;-65
2022/02/15 05:55:23;;;;;;;7.60;5.83;;;;;;;;;;5015102;28;20324;-65
2022/02/15 05:57:49;;;;;;;8.27;6.13;;;;;;;;;;5020847;28;20205;-65
2022/02/15 06:00:19;;;;;;;6.03;5.43;;;;;;;;;;5009143;28;20185;-65
2022/02/15 06:02:46;;;;;;;8.33;6.37;;;;;;;;;;5014341;28;20186;-65
2022/02/15 06:05:14;;;;;;;6.60;5.33;;;;;;;;;;5023974;28;20178;-65
2022/02/15 06:07:43;;;;;;;6.57;5.53;;;;;;;;;;5014212;28;20177;-64
2022/02/15 06:10:10;;;;;;;7.93;6.23;;;;;;;;;;5003667;28;20178;-65
2022/02/15 06:12:36;;;;;;;8.97;5.80;;;;;;;;;;5025302;28;20331;-64
2022/02/15 06:15:03;;;;;;;6.93;5.40;;;;;;;;;;5007400;28;20581;-65
2022/02/15 06:17:30;;;;;;;6.43;4.97;;;;;;;;;;5020234;28;20265;-64
2022/02/15 06:19:57;;;;;;;6.30;5.70;;;;;;;;;;5031521;28;20642;-65
2022/02/15 06:22:23;;;;;;;7.47;5.30;;;;;;;;;;5010905;28;20250;-65
2022/02/15 06:24:49;;;;;;;7.47;5.63;;;;;;;;;;5012972;28;20229;-64
2022/02/15 06:27:19;;;;;;;6.97;5.73;;;;;;;;;;5011513;28;20228;-64
2022/02/15 06:29:45;;;;;;;6.73;5.13;;;;;;;;;;5017915;28;20585;-64
2022/02/15 06:32:23;;;;;;;13.13;6.30;;;;;;;;;;5014048;28;20244;-65
2022/02/15 06:34:50;;;;;;;9.77;5.93;;;;;;;;;;5020881;28;20621;-65
2022/02/15 06:37:17;;;;;;;6.17;5.57;;;;;;;;;;5010558;28;20179;-65
2022/02/15 06:39:47;;;;;;;10.27;5.50;;;;;;;;;;5016302;28;20273;-64
2022/02/15 06:42:14;;;;;;;8.53;5.97;;;;;;;;;;5019898;28;20656;-64
2022/02/15 06:44:43;;;;;;;8.00;5.50;;;;;;;;;;5035170;28;20188;-64
2022/02/15 06:47:13;;;;;;;6.33;5.53;;;;;;;;;;5021018;28;20175;-63
2022/02/15 06:50:23;;;;;;;8.57;5.30;;;;;;;;;;5025980;28;20236;-64
2022/02/15 06:52:31;;;;;;;5.77;4.70;;;;;;;;;;5028693;28;20665;-64
2022/02/15 06:54:57;;;;;;;9.87;5.60;;;;;;;;;;5022075;28;20237;-63
2022/02/15 06:57:23;;;;;;;7.23;5.53;;;;;;;;;;5021689;28;20289;-64
2022/02/15 06:59:50;;;;;;;5.13;4.60;;;;;;;;;;5025336;28;20181;-63
2022/02/15 07:02:28;;;;;;;6.93;5.20;;;;;;;;;;5014109;28;20193;-63
2022/02/15 07:04:55;;;;;;;9.63;5.17;;;;;;;;;;5030426;28;20260;-64
2022/02/15 07:07:21;;;;;;;5.67;4.77;;;;;;;;;;5033978;28;20177;-65
2022/02/15 07:09:48;;;;;;;9.47;5.67;;;;;;;;;;5028584;28;20177;-64
2022/02/15 07:12:14;;;;;;;5.67;4.47;;;;;;;;;;5017608;28;20198;-64
2022/02/15 07:14:43;;;;;;;13.70;5.40;;;;;;;;;;5012769;28;20588;-63
2022/02/15 07:17:09;;;;;;;16.77;5.60;;;;;;;;;;5013212;28;20642;-63
2022/02/15 07:19:39;;;;;;;12.20;4.83;;;;;;;;;;5018744;28;20235;-64
2022/02/15 07:22:09;;;;;;;8.20;5.30;;;;;;;;;;5016019;28;20188;-64
2022/02/15 07:24:36;;;;;;;12.87;5.40;;;;;;;;;;5012405;28;20311;-64
2022/02/15 07:27:02;;;;;;;27.93;7.90;;;;;;;;;;5031806;28;20182;-64
2022/02/15 07:29:29;;;;;;;16.40;6.03;;;;;;;;;;5030142;28;20263;-64
2022/02/15 07:31:55;;;;;;;33.33;5.80;;;;;;;;;;5032569;28;20209;-64
2022/02/15 07:34:26;;;;;;;22.20;6.60;;;;;;;;;;5027015;28;20181;-64
2022/02/15 07:36:53;;;;;;;30.50;7.20;;;;;;;;;;5017573;28;20685;-64
2022/02/15 07:39:23;;;;;;;22.17;7.60;;;;;;;;;;5014961;28;20585;-64
2022/02/15 07:41:50;;;;;;;17.27;6.40;;;;;;;;;;5046794;28;20197;-64
2022/02/15 07:44:19;;;;;;;19.60;6.60;;;;;;;;;;5037926;28;20187;-64
2022/02/15 07:46:48;;;;;;;23.40;6.87;;;;;;;;;;5017597;28;20264;-64
2022/02/15 07:49:16;;;;;;;19.03;6.50;;;;;;;;;;5021538;28;20185;-64
2022/02/15 07:51:45;;;;;;;18.73;5.87;;;;;;;;;;5028498;28;20186;-64
2022/02/15 07:54:12;;;;;;;13.67;6.67;;;;;;;;;;5016412;28;20198;-64
2022/02/15 07:56:41;;;;;;;11.37;6.57;;;;;;;;;;5030392;28;20344;-64
2022/02/15 07:59:10;;;;;;;15.67;6.83;;;;;;;;;;5019388;28;20554;-64
2022/02/15 08:01:36;;;;;;;11.80;5.90;;;;;;;;;;5028182;28;20175;-64
2022/02/15 08:04:03;;;;;;;15.83;7.10;;;;;;;;;;5032396;28;20207;-65
2022/02/15 08:06:29;;;;;;;16.43;6.57;;;;;;;;;;5024072;28;20189;-65
2022/02/15 08:08:56;;;;;;;8.90;5.97;;;;;;;;;;5024030;28;20668;-65
2022/02/15 08:11:25;;;;;;;10.40;6.20;;;;;;;;;;5020820;28;20186;-64
2022/02/15 08:13:53;;;;;;;12.17;6.13;;;;;;;;;;5026371;28;20185;-65
2022/02/15 08:16:20;;;;;;;11.37;6.10;;;;;;;;;;5024113;28;20189;-65
2022/02/15 08:18:47;;;;;;;12.20;7.23;;;;;;;;;;5009837;28;20170;-65
2022/02/15 08:21:13;;;;;;;10.23;6.93;;;;;;;;;;5019906;28;20178;-65
2022/02/15 08:23:43;;;;;;;17.83;7.30;;;;;;;;;;5016450;28;20215;-65
2022/02/15 08:26:09;;;;;;;10.03;6.97;;;;;;;;;;5000124;28;20597;-65
2022/02/15 08:28:40;;;;;;;12.37;6.90;;;;;;;;;;5014443;28;20258;-65
2022/02/15 08:31:07;;;;;;;11.23;6.77;;;;;;;;;;5007421;28;20182;-65
2022/02/15 08:33:34;;;;;;;12.47;7.10;;;;;;;;;;4996158;28;20722;-65
2022/02/15 08:36:03;;;;;;;9.00;6.67;;;;;;;;;;5001918;28;20228;-65
2022/02/15 08:38:33;;;;;;;11.23;7.87;;;;;;;;;;5009400;28;20177;-65
2022/02/15 08:41:00;;;;;;;7.57;6.67;;;;;;;;;;5002764;28;20181;-65
2022/02/15 08:43:27;;;;;;;13.53;7.43;;;;;;;;;;5011212;28;20605;-65
2022/02/15 08:45:53;;;;;;;10.00;7.73;;;;;;;;;;4999268;28;20182;-64
2022/02/15 08:48:19;;;;;;;10.97;8.00;;;;;;;;;;5009929;28;20495;-65
2022/02/15 08:50:46;;;;;;;11.83;7.77;;;;;;;;;;5007605;28;20724;-65
2022/02/15 08:53:12;;;;;;;9.80;7.20;;;;;;;;;;5000522;28;20221;-65
2022/02/15 08:55:41;;;;;;;13.93;7.80;;;;;;;;;;5008337;28;20170;-65
2022/02/15 08:58:08;;;;;;;11.13;9.33;;;;;;;;;;5017361;28;20194;-65
2022/02/15 09:00:36;;;;;;;11.57;7.97;;;;;;;;;;5001839;28;20178;-65
2022/02/15 09:03:05;;;;;;;10.87;8.10;;;;;;;;;;4997673;28;20224;-65
2022/02/15 09:05:31;;;;;;;12.17;8.30;;;;;;;;;;4995311;28;20171;-65
2022/02/15 09:07:58;;;;;;;12.10;8.20;;;;;;;;;;4993767;28;20225;-65
2022/02/15 09:10:24;;;;;;;10.47;7.90;;;;;;;;;;4992418;28;20186;-65
2022/02/15 09:12:50;;;;;;;13.10;8.83;;;;;;;;;;5025995;28;20206;-65
2022/02/15 09:15:17;;;;;;;10.37;8.50;;;;;;;;;;5004855;28;20177;-65
2022/02/15 09:17:46;;;;;;;13.80;8.43;;;;;;;;;;5008362;28;20565;-65
2022/02/15 09:20:12;;;;;;;13.23;9.27;;;;;;;;;;5003791;28;20654;-65
2022/02/15 09:22:39;;;;;;;9.60;8.60;;;;;;;;;;5008672;28;20511;-65
2022/02/15 09:25:05;;;;;;;11.03;7.90;;;;;;;;;;5038392;28;20233;-65
2022/02/15 09:27:35;;;;;;;12.20;8.50;;;;;;;;;;5028482;28;20289;-65
2022/02/15 09:30:05;;;;;;;12.00;9.17;;;;;;;;;;5014857;28;20273;-65
2022/02/15 09:32:31;;;;;;;12.43;8.00;;;;;;;;;;5015016;28;20226;-64
2022/02/15 09:34:57;;;;;;;15.33;9.40;;;;;;;;;;5027875;28;20190;-63
2022/02/15 09:37:27;;;;;;;10.50;8.70;;;;;;;;;;5016747;28;20181;-63
2022/02/15 09:39:55;;;;;;;11.90;9.20;;;;;;;;;;5026968;28;20636;-64
2022/02/15 09:42:30;;;;;;;10.50;7.80;;;;;;;;;;5018957;28;20185;-64
2022/02/15 09:44:56;;;;;;;13.20;8.33;;;;;;;;;;5008719;28;20637;-64
2022/02/15 09:47:24;;;;;;;11.67;9.07;;;;;;;;;;5008243;28;20179;-64
2022/02/15 09:49:58;;;;;;;12.43;8.33;;;;;;;;;;5019183;28;20194;-64
2022/02/15 09:52:27;;;;;;;10.30;8.10;;;;;;;;;;5016870;28;20205;-64
2022/02/15 09:54:57;;;;;;;9.17;8.10;;;;;;;;;;5033800;28;20185;-64
2022/02/15 09:57:33;;;;;;;12.47;9.00;;;;;;;;;;5009821;28;20288;-63
2022/02/15 09:59:59;;;;;;;9.57;7.63;;;;;;;;;;5023984;28;20177;-64
2022/02/15 10:02:28;;;;;;;10.37;8.10;;;;;;;;;;5014010;28;20184;-64
2022/02/15 10:04:55;;;;;;;9.87;7.80;;;;;;;;;;5011686;28;20213;-63
2022/02/15 10:07:23;;;;;;;9.67;8.50;;;;;;;;;;5041836;28;20190;-64
2022/02/15 10:09:50;;;;;;;11.20;8.60;;;;;;;;;;5010610;28;20194;-64
2022/02/15 10:12:28;;;;;;;10.07;8.87;;;;;;;;;;5027824;28;20518;-64
2022/02/15 10:14:56;;;;;;;10.50;8.60;;;;;;;;;;5007044;28;20328;-64
2022/02/15 10:17:23;;;;;;;9.03;7.27;;;;;;;;;;5033488;28;20192;-64
2022/02/15 10:19:50;;;;;;;11.63;8.90;;;;;;;;;;5053531;28;20541;-64
2022/02/15 10:22:18;;;;;;;10.50;8.37;;;;;;;;;;5012736;28;20648;-64
2022/02/15 10:24:50;;;;;;;10.80;8.07;;;;;;;;;;5018073;28;20227;-64
2022/02/15 10:27:16;;;;;;;11.17;8.47;;;;;;;;;;5015743;28;20224;-65
2022/02/15 10:29:46;;;;;;;8.83;7.90;;;;;;;;;;5024389;28;20181;-64
2022/02/15 10:32:17;;;;;;;11.20;7.20;;;;;;;;;;5026314;28;20730;-64
2022/02/15 10:34:53;;;;;;;14.83;8.37;;;;;;;;;;5012080;28;20188;-64
2022/02/15 10:37:20;;;;;;;9.70;7.97;;;;;;;;;;5050767;28;20215;-63
2022/02/15 10:39:52;;;;;;;19.73;8.93;;;;;;;;;;5007414;28;20551;-64
2022/02/15 10:42:26;;;;;;;12.93;8.20;;;;;;;;;;5031022;28;20189;-64
2022/02/15 10:44:57;;;;;;;13.57;8.00;;;;;;;;;;5027536;28;20585;-64
2022/02/15 10:47:27;;;;;;;13.87;7.17;;;;;;;;;;5050582;28;20174;-65
2022/02/15 10:49:55;;;;;;;12.23;7.43;;;;;;;;;;5009132;28;20248;-65
2022/02/15 10:52:21;;;;;;;20.87;8.40;;;;;;;;;;5043104;28;20205;-65
2022/02/15 10:54:51;;;;;;;14.87;8.27;;;;;;;;;;5033347;28;20205;-65
2022/02/15 10:57:23;;;;;;;13.20;8.40;;;;;;;;;;5021227;28;20660;-65
2022/02/15 10:59:54;;;;;;;8.60;7.70;;;;;;;;;;5025076;28;20185;-65
2022/02/15 11:02:23;;;;;;;13.47;8.07;;;;;;;;;;5014398;28;20185;-65
2022/02/15 11:04:55;;;;;;;8.80;6.93;;;;;;;;;;5036032;28;20182;-65
2022/02/15 11:07:28;;;;;;;10.10;6.87;;;;;;;;;;5041678;28;20246;-65
2022/02/15 11:10:18;;;;;;;11.90;7.03;;;;;;;;;;5022889;28;20236;-65
2022/02/15 11:12:44;;;;;;;8.27;6.87;;;;;;;;;;5011863;28;20197;-65
2022/02/15 11:15:11;;;;;;;15.63;7.30;;;;;;;;;;5012683;28;20189;-65
2022/02/15 11:17:50;;;;;;;12.27;6.20;;;;;;;;;;5029685;28;20600;-65
2022/02/15 11:20:17;;;;;;;7.03;4.97;;;;;;;;;;5011836;28;20578;-65
2022/02/15 11:22:44;;;;;;;6.77;5.90;;;;;;;;;;5012111;28;20189;-65
2022/02/15 11:25:10;;;;;;;8.00;6.00;;;;;;;;;;5007128;28;20720;-65
2022/02/15 11:27:37;;;;;;;8.20;5.90;;;;;;;;;;5015820;28;20267;-65
2022/02/15 11:30:04;;;;;;;8.90;5.80;;;;;;;;;;5022936;28;20187;-65
2022/02/15 11:32:34;;;;;;;6.97;5.00;;;;;;;;;;5029054;28;20202;-65
2022/02/15 11:35:09;;;;;;;7.30;5.23;;;;;;;;;;5013491;28;20182;-65
2022/02/15 11:37:36;;;;;;;8.97;4.97;;;;;;;;;;5023483;28;20705;-65
2022/02/15 11:40:06;;;;;;;6.00;4.87;;;;;;;;;;5015268;28;20215;-65
2022/02/15 11:42:42;;;;;;;9.87;5.00;;;;;;;;;;5042462;28;20560;-65
2022/02/15 11:45:25;;;;;;;6.53;4.30;;;;;;;;;;5025832;28;20186;-66
2022/02/15 11:48:00;;;;;;;6.10;4.27;;;;;;;;;;5046525;28;20177;-66
2022/02/15 11:50:27;;;;;;;5.27;4.00;;;;;;;;;;5011515;28;20345;-65
2022/02/15 11:52:56;;;;;;;6.60;4.43;;;;;;;;;;5011381;28;20207;-65
2022/02/15 11:55:22;;;;;;;4.97;3.80;;;;;;;;;;5021535;28;20297;-65
2022/02/15 11:57:49;;;;;;;10.67;3.80;;;;;;;;;;5007105;28;20204;-65
2022/02/15 12:00:18;;;;;;;5.27;3.97;;;;;;;;;;5011117;28;20657;-65
2022/02/15 12:02:55;;;;;;;5.17;3.53;;;;;;;;;;5041002;28;20341;-65
2022/02/15 12:05:25;;;;;;;6.83;3.60;;;;;;;;;;5034309;28;20276;-65
2022/02/15 12:07:54;;;;;;;5.90;3.80;;;;;;;;;;5016057;28;20398;-65
2022/02/15 12:10:24;;;;;;;7.47;3.80;;;;;;;;;;5028850;28;20972;-65
2022/02/15 12:12:52;;;;;;;4.93;3.93;;;;;;;;;;5022695;28;20204;-65
2022/02/15 12:15:21;;;;;;;5.13;3.67;;;;;;;;;;5022455;28;20360;-66
2022/02/15 12:17:49;;;;;;;7.00;3.47;;;;;;;;;;5010894;28;20177;-65
2022/02/15 12:20:19;;;;;;;12.57;3.60;;;;;;;;;;5021857;28;20648;-65
2022/02/15 12:22:48;;;;;;;7.37;3.40;;;;;;;;;;5012019;28;20178;-64
2022/02/15 12:25:15;;;;;;;5.27;3.33;;;;;;;;;;5010100;28;20685;-65
2022/02/15 12:27:42;;;;;;;3.03;2.73;;;;;;;;;;5024172;28;20181;-65
2022/02/15 12:30:12;;;;;;;3.43;2.60;;;;;;;;;;5027716;28;20181;-65
2022/02/15 12:32:40;;;;;;;5.07;3.30;;;;;;;;;;5022170;28;20725;-65
2022/02/15 12:35:08;;;;;;;4.83;3.40;;;;;;;;;;5013060;28;20174;-65
2022/02/15 12:37:34;;;;;;;6.03;3.03;;;;;;;;;;5023115;28;20170;-64
2022/02/15 12:40:01;;;;;;;8.93;3.53;;;;;;;;;;5032222;28;20220;-64
2022/02/15 12:42:31;;;;;;;4.03;3.30;;;;;;;;;;5028544;28;20182;-64
2022/02/15 12:45:05;;;;;;;5.53;3.23;;;;;;;;;;5028901;28;20272;-65
2022/02/15 12:47:37;;;;;;;4.73;2.73;;;;;;;;;;5022016;28;20547;-65
2022/02/15 12:50:07;;;;;;;6.93;2.97;;;;;;;;;;5029200;28;20174;-64
2022/02/15 12:52:34;;;;;;;4.47;2.73;;;;;;;;;;5010505;28;20545;-64
2022/02/15 12:55:02;;;;;;;5.77;2.97;;;;;;;;;;5029004;28;20166;-65
2022/02/15 12:57:29;;;;;;;3.43;2.77;;;;;;;;;;5032253;28;20775;-64
2022/02/15 13:00:00;;;;;;;5.10;3.10;;;;;;;;;;5023699;28;20201;-65
2022/02/15 13:02:29;;;;;;;5.23;2.63;;;;;;;;;;5016164;28;20181;-65
2022/02/15 13:04:57;;;;;;;3.80;2.53;;;;;;;;;;5045742;28;20252;-65
2022/02/15 13:07:24;;;;;;;4.77;2.27;;;;;;;;;;5030190;28;20707;-65
2022/02/15 13:09:51;;;;;;;5.23;2.27;;;;;;;;;;5046543;28;20227;-65
2022/02/15 13:12:18;;;;;;;3.10;2.27;;;;;;;;;;5028877;28;20232;-64
2022/02/15 13:14:55;;;;;;;3.77;2.27;;;;;;;;;;5022701;28;20173;-64
2022/02/15 13:17:23;;;;;;;3.90;2.47;;;;;;;;;;5046154;28;20173;-64
2022/02/15 13:19:49;;;;;;;5.07;2.20;;;;;;;;;;5015796;28;20727;-63
2022/02/15 13:22:25;;;;;;;4.53;2.00;;;;;;;;;;5009729;28;20346;-62
2022/02/15 13:24:52;;;;;;;5.00;1.80;;;;;;;;;;5031966;28;20221;-63
2022/02/15 13:27:28;;;;;;;2.83;1.77;;;;;;;;;;5013718;28;20178;-63
2022/02/15 13:29:54;;;;;;;5.20;3.03;;;;;;;;;;5031408;28;20181;-63
2022/02/15 13:32:30;;;;;;;2.77;1.60;;;;;;;;;;5024488;28;20206;-63
2022/02/15 13:34:56;;;;;;;5.67;1.90;;;;;;;;;;5020572;28;20232;-63
2022/02/15 13:37:30;;;;;;;3.30;1.63;;;;;;;;;;5029335;28;20201;-63
2022/02/15 13:39:57;;;;;;;5.83;2.10;;;;;;;;;;5027005;28;20162;-63
2022/02/15 13:42:23;;;;;;;2.40;1.57;;;;;;;;;;5011221;28;20174;-64
2022/02/15 13:44:50;;;;;;;2.27;1.50;;;;;;;;;;5025114;28;20220;-63
2022/02/15 13:47:16;;;;;;;5.60;1.80;;;;;;;;;;5011036;28;20177;-64
2022/02/15 13:49:42;;;;;;;5.53;2.03;;;;;;;;;;5007053;28;20423;-63
2022/02/15 13:52:09;;;;;;;5.23;1.57;;;;;;;;;;5016303;28;20574;-63
2022/02/15 13:54:40;;;;;;;2.27;1.63;;;;;;;;;;5006820;28;20194;-64
2022/02/15 13:57:09;;;;;;;2.17;1.40;;;;;;;;;;5016294;28;20238;-64
2022/02/15 13:59:36;;;;;;;2.93;1.40;;;;;;;;;;5036171;28;20256;-64
2022/02/15 14:02:03;;;;;;;1.87;1.37;;;;;;;;;;5016889;28;20332;-64
2022/02/15 14:04:29;;;;;;;2.67;1.50;;;;;;;;;;5008150;28;20216;-64
2022/02/15 14:07:05;;;;;;;1.90;1.20;;;;;;;;;;5013320;28;20194;-64
2022/02/15 14:09:32;;;;;;;2.60;1.43;;;;;;;;;;5024266;28;20708;-63
2022/02/15 14:11:59;;;;;;;4.10;1.27;;;;;;;;;;5018218;28;20554;-64
2022/02/15 14:14:25;;;;;;;2.77;1.57;;;;;;;;;;5028457;28;20714;-64
2022/02/15 14:17:37;;;;;;;2.37;1.30;;;;;;;;;;5015057;28;20181;-63
2022/02/15 14:19:42;;;;;;;4.37;2.10;;;;;;;;;;5024656;28;20792;-64
2022/02/15 14:22:11;;;;;;;4.27;1.53;;;;;;;;;;5027417;28;20575;-63
2022/02/15 14:24:38;;;;;;;2.77;1.90;;;;;;;;;;5012227;28;20220;-65
2022/02/15 14:27:05;;;;;;;3.13;1.83;;;;;;;;;;5010564;28;20190;-64
2022/02/15 14:29:34;;;;;;;2.07;1.77;;;;;;;;;;5027254;28;20181;-65
2022/02/15 14:32:01;;;;;;;2.23;1.30;;;;;;;;;;5019185;28;20584;-65
2022/02/15 14:34:27;;;;;;;4.50;1.80;;;;;;;;;;5007495;28;20170;-64
2022/02/15 14:36:57;;;;;;;2.17;1.60;;;;;;;;;;5008699;28;20661;-64
2022/02/15 14:39:27;;;;;;;3.73;1.87;;;;;;;;;;5008318;28;20174;-64
2022/02/15 14:41:54;;;;;;;3.00;1.80;;;;;;;;;;5012686;28;20234;-64
2022/02/15 14:44:20;;;;;;;3.20;1.83;;;;;;;;;;5008233;28;20661;-64
2022/02/15 14:46:46;;;;;;;5.97;2.20;;;;;;;;;;5024364;28;20205;-64
2022/02/15 14:49:15;;;;;;;4.57;2.60;;;;;;;;;;5011717;28;20190;-64
2022/02/15 14:51:42;;;;;;;6.47;2.90;;;;;;;;;;5039547;28;20297;-65
2022/02/15 14:54:11;;;;;;;4.80;3.07;;;;;;;;;;5004580;28;20182;-64
2022/02/15 14:56:38;;;;;;;3.93;2.57;;;;;;;;;;5004676;28;20197;-64